Time;durP1;ratioP1;P1;durP2;ratioP2;P2;SDS_P1;SDS_P2;PMS_P1;PMS_P2;Temp;Humidity;BMP_temperature;BMP_pressure;BME280_temperature;BME280_humidity;BME280_pressure;Samples;Min_cycle;Max_cycle;Signal;HPM_P1;HPM_P2
2021/12/25 00:01:15;;;;;;;4.55;1.00;;;;;;;;;;5135961;27;20053;-73
2021/12/25 00:03:42;;;;;;;4.65;1.38;;;;;;;;;;5154872;27;20475;-72
2021/12/25 00:06:09;;;;;;;3.00;1.00;;;;;;;;;;5154891;27;20360;-73
2021/12/25 00:08:37;;;;;;;3.63;0.90;;;;;;;;;;5154830;27;20023;-73
2021/12/25 00:11:07;;;;;;;3.28;1.00;;;;;;;;;;5154823;27;20022;-73
2021/12/25 00:13:35;;;;;;;2.03;0.90;;;;;;;;;;5154881;27;20108;-73
2021/12/25 00:16:02;;;;;;;6.20;1.10;;;;;;;;;;5154590;27;20483;-73
2021/12/25 00:18:29;;;;;;;4.00;1.40;;;;;;;;;;5136093;27;20023;-73
2021/12/25 00:20:56;;;;;;;3.20;1.00;;;;;;;;;;5154316;27;20031;-73
2021/12/25 00:23:24;;;;;;;3.15;0.80;;;;;;;;;;5154325;27;20098;-73
2021/12/25 00:26:05;;;;;;;2.80;1.00;;;;;;;;;;5154533;27;20124;-73
2021/12/25 00:36:12;;;;;;;2.60;0.90;;;;;;;;;;5154405;27;20027;-73
2021/12/25 00:38:42;;;;;;;3.40;1.17;;;;;;;;;;5154379;27;20027;-73
2021/12/25 00:41:09;;;;;;;4.65;1.25;;;;;;;;;;5135315;27;20022;-72
2021/12/25 00:43:37;;;;;;;3.00;0.65;;;;;;;;;;5135608;27;20034;-72
2021/12/25 00:46:04;;;;;;;3.33;1.13;;;;;;;;;;5135377;27;20025;-73
2021/12/25 00:48:31;;;;;;;5.82;1.50;;;;;;;;;;5135817;27;20021;-72
2021/12/25 00:50:58;;;;;;;4.65;1.08;;;;;;;;;;5154429;27;20051;-73
2021/12/25 00:53:25;;;;;;;3.88;1.08;;;;;;;;;;5154008;27;20039;-73
2021/12/25 00:55:53;;;;;;;3.15;0.90;;;;;;;;;;5154255;27;20114;-73
2021/12/25 00:58:20;;;;;;;3.20;0.82;;;;;;;;;;5154196;27;20035;-73
2021/12/25 01:00:47;;;;;;;3.55;1.02;;;;;;;;;;5154287;27;20367;-73
2021/12/25 01:03:14;;;;;;;4.40;1.00;;;;;;;;;;5135320;27;20019;-73
2021/12/25 01:05:41;;;;;;;5.68;1.10;;;;;;;;;;5154190;27;20091;-72
2021/12/25 01:08:10;;;;;;;3.20;1.20;;;;;;;;;;5135241;27;20498;-73
2021/12/25 01:10:37;;;;;;;2.40;1.05;;;;;;;;;;5154099;27;20027;-73
2021/12/25 01:16:40;;;;;;;2.50;0.90;;;;;;;;;;5154063;27;20027;-73
2021/12/25 01:18:57;;;;;;;3.15;0.88;;;;;;;;;;5142534;27;20035;-73
2021/12/25 01:24:14;;;;;;;3.67;1.10;;;;;;;;;;5154086;27;20019;-73
2021/12/25 01:26:59;;;;;;;3.97;1.02;;;;;;;;;;5152111;27;20034;-73
2021/12/25 01:32:34;;;;;;;3.47;0.93;;;;;;;;;;5154046;27;20474;-73
2021/12/25 01:35:15;;;;;;;4.57;0.95;;;;;;;;;;5157259;27;20019;-73
2021/12/25 01:38:03;;;;;;;5.00;1.10;;;;;;;;;;5157412;27;20031;-73
2021/12/25 01:40:50;;;;;;;2.67;0.80;;;;;;;;;;5139000;27;20027;-73
2021/12/25 01:48:47;;;;;;;1.88;0.65;;;;;;;;;;5157670;27;20038;-73
2021/12/25 01:51:14;;;;;;;3.83;1.02;;;;;;;;;;5157322;27;20102;-74
2021/12/25 01:53:42;;;;;;;3.42;1.13;;;;;;;;;;5138139;27;20042;-73
2021/12/25 01:56:09;;;;;;;3.22;0.70;;;;;;;;;;5138681;27;20022;-73
2021/12/25 01:58:37;;;;;;;4.78;0.93;;;;;;;;;;5138368;27;20367;-74
2021/12/25 02:01:05;;;;;;;4.43;1.00;;;;;;;;;;5138637;27;20082;-73
2021/12/25 02:03:35;;;;;;;4.07;0.95;;;;;;;;;;5138138;27;20029;-73
2021/12/25 02:06:02;;;;;;;3.97;0.90;;;;;;;;;;5157147;27;20025;-73
2021/12/25 02:08:29;;;;;;;3.95;1.17;;;;;;;;;;5138424;27;20083;-73
2021/12/25 02:10:57;;;;;;;3.05;0.82;;;;;;;;;;5156903;27;20049;-73
2021/12/25 02:13:25;;;;;;;4.00;1.08;;;;;;;;;;5156966;27;20023;-73
2021/12/25 02:15:54;;;;;;;3.28;0.98;;;;;;;;;;5138104;27;20026;-73
2021/12/25 02:18:28;;;;;;;3.65;0.90;;;;;;;;;;5156806;27;20097;-72
2021/12/25 02:21:41;;;;;;;5.40;1.20;;;;;;;;;;5138240;27;20026;-73
2021/12/25 02:23:42;;;;;;;2.42;0.80;;;;;;;;;;5141437;27;20117;-73
2021/12/25 02:26:09;;;;;;;3.13;0.90;;;;;;;;;;5156816;27;20391;-73
2021/12/25 02:28:37;;;;;;;2.08;0.70;;;;;;;;;;5156516;27;20386;-74
2021/12/25 02:31:06;;;;;;;3.05;1.30;;;;;;;;;;5156651;27;20090;-73
2021/12/25 02:33:34;;;;;;;4.75;1.02;;;;;;;;;;5137748;27;20034;-73
2021/12/25 02:36:01;;;;;;;4.00;0.90;;;;;;;;;;5156525;27;20080;-73
2021/12/25 02:38:28;;;;;;;3.38;1.10;;;;;;;;;;5138037;27;20030;-74
2021/12/25 02:40:56;;;;;;;5.18;1.10;;;;;;;;;;5156393;27;20014;-72
2021/12/25 02:43:24;;;;;;;4.10;0.95;;;;;;;;;;5156475;27;20019;-73
2021/12/25 02:45:54;;;;;;;4.95;1.20;;;;;;;;;;5136809;27;20029;-73
2021/12/25 02:48:21;;;;;;;2.80;0.95;;;;;;;;;;5137864;27;20021;-73
2021/12/25 02:50:49;;;;;;;3.15;0.90;;;;;;;;;;5156246;27;20027;-73
2021/12/25 02:53:16;;;;;;;4.40;1.20;;;;;;;;;;5156059;27;20047;-73
2021/12/25 02:55:44;;;;;;;6.00;1.77;;;;;;;;;;5137095;27;20048;-73
2021/12/25 02:58:12;;;;;;;8.10;2.30;;;;;;;;;;5137347;27;20029;-73
2021/12/25 03:00:42;;;;;;;5.50;1.20;;;;;;;;;;5137207;27;20038;-74
2021/12/25 03:03:10;;;;;;;6.72;1.35;;;;;;;;;;5137123;27;20015;-74
2021/12/25 03:05:38;;;;;;;4.13;1.35;;;;;;;;;;5155985;27;20034;-73
2021/12/25 03:08:06;;;;;;;3.85;1.35;;;;;;;;;;5156015;27;20327;-73
2021/12/25 03:10:35;;;;;;;8.25;2.80;;;;;;;;;;5137061;27;20023;-74
2021/12/25 03:15:45;;;;;;;8.00;3.30;;;;;;;;;;5155752;27;20030;-74
2021/12/25 03:18:16;;;;;;;4.55;1.42;;;;;;;;;;5137041;27;20030;-73
2021/12/25 03:20:46;;;;;;;4.00;1.48;;;;;;;;;;5155630;27;20051;-73
2021/12/25 03:23:15;;;;;;;5.00;1.67;;;;;;;;;;5155727;27;20535;-73
2021/12/25 03:25:43;;;;;;;5.55;1.40;;;;;;;;;;5155592;27;20046;-73
2021/12/25 03:28:11;;;;;;;3.00;0.93;;;;;;;;;;5155552;27;20576;-74
2021/12/25 03:30:39;;;;;;;2.47;1.05;;;;;;;;;;5155472;27;20034;-73
2021/12/25 03:33:07;;;;;;;3.88;0.93;;;;;;;;;;5155451;27;20031;-73
2021/12/25 03:35:35;;;;;;;2.53;0.90;;;;;;;;;;5155278;27;20014;-73
2021/12/25 03:38:02;;;;;;;3.75;0.77;;;;;;;;;;5155395;27;20497;-73
2021/12/25 03:40:29;;;;;;;3.42;0.80;;;;;;;;;;5155111;27;20022;-73
2021/12/25 03:42:57;;;;;;;2.42;0.82;;;;;;;;;;5155172;27;20407;-73
2021/12/25 03:45:30;;;;;;;4.68;1.08;;;;;;;;;;5136656;27;20021;-73
2021/12/25 03:48:08;;;;;;;1.38;0.60;;;;;;;;;;5136322;27;20049;-73
2021/12/25 03:58:53;;;;;;;2.65;0.70;;;;;;;;;;5155252;27;20394;-73
2021/12/25 04:04:07;;;;;;;2.83;0.90;;;;;;;;;;5154959;27;20019;-73
2021/12/25 04:06:34;;;;;;;3.40;0.85;;;;;;;;;;5154888;27;20019;-74
2021/12/25 04:09:08;;;;;;;3.53;0.80;;;;;;;;;;5154824;27;20025;-73
2021/12/25 04:11:40;;;;;;;2.70;0.80;;;;;;;;;;5135938;27;20019;-73
2021/12/25 04:14:07;;;;;;;2.50;0.68;;;;;;;;;;5154801;27;20026;-73
2021/12/25 04:16:34;;;;;;;3.15;0.90;;;;;;;;;;5154781;27;20128;-73
2021/12/25 04:19:01;;;;;;;4.63;1.00;;;;;;;;;;5135771;27;20042;-73
2021/12/25 04:21:29;;;;;;;2.78;0.80;;;;;;;;;;5154542;27;20072;-74
2021/12/25 04:23:56;;;;;;;4.25;0.82;;;;;;;;;;5135679;27;20026;-73
2021/12/25 04:26:25;;;;;;;3.30;0.80;;;;;;;;;;5154540;27;20049;-73
2021/12/25 04:31:35;;;;;;;4.30;0.90;;;;;;;;;;5154485;27;20035;-73
2021/12/25 05:04:14;;;;;;;4.97;1.27;;;;;;;;;;5154487;27;20030;-73
2021/12/25 05:06:42;;;;;;;4.68;1.15;;;;;;;;;;5135408;27;20026;-73
2021/12/25 05:09:09;;;;;;;2.97;0.73;;;;;;;;;;5138685;27;20023;-74
2021/12/25 05:11:36;;;;;;;3.92;1.30;;;;;;;;;;5139460;27;20026;-74
2021/12/25 05:14:03;;;;;;;5.10;0.80;;;;;;;;;;5139027;27;20074;-74
2021/12/25 05:16:30;;;;;;;5.25;0.93;;;;;;;;;;5139191;27;20023;-74
2021/12/25 05:18:57;;;;;;;3.88;0.80;;;;;;;;;;5139038;27;20394;-73
2021/12/25 05:21:25;;;;;;;5.53;0.90;;;;;;;;;;5158011;27;20102;-72
2021/12/25 05:23:52;;;;;;;4.03;0.85;;;;;;;;;;5139352;27;20020;-72
2021/12/25 05:26:19;;;;;;;5.28;0.98;;;;;;;;;;5157992;27;20098;-73
2021/12/25 05:28:57;;;;;;;4.30;1.00;;;;;;;;;;5157922;27;20023;-73
2021/12/25 05:31:24;;;;;;;4.50;1.00;;;;;;;;;;5157865;27;20029;-73
2021/12/25 05:33:51;;;;;;;3.25;0.95;;;;;;;;;;5157748;27;20032;-73
2021/12/25 05:36:18;;;;;;;4.35;0.88;;;;;;;;;;5139087;27;20410;-73
2021/12/25 05:38:46;;;;;;;3.65;1.10;;;;;;;;;;5138716;27;20019;-72
2021/12/25 05:41:13;;;;;;;4.40;1.10;;;;;;;;;;5139025;27;20069;-73
2021/12/25 05:43:41;;;;;;;4.22;1.33;;;;;;;;;;5157490;27;20094;-73
2021/12/25 05:46:08;;;;;;;4.97;1.05;;;;;;;;;;5157568;27;20019;-73
2021/12/25 05:48:35;;;;;;;4.75;0.95;;;;;;;;;;5157490;27;20027;-74
2021/12/25 05:51:04;;;;;;;7.38;1.10;;;;;;;;;;5138301;27;20030;-73
2021/12/25 05:53:31;;;;;;;4.32;1.10;;;;;;;;;;5157195;27;20542;-73
2021/12/25 05:55:59;;;;;;;6.97;1.30;;;;;;;;;;5157154;27;20062;-73
2021/12/25 05:58:26;;;;;;;4.10;0.93;;;;;;;;;;5138449;27;20471;-73
2021/12/25 06:00:53;;;;;;;5.07;1.08;;;;;;;;;;5138454;27;20027;-73
2021/12/25 06:03:20;;;;;;;3.95;1.10;;;;;;;;;;5156841;27;20015;-72
2021/12/25 06:05:47;;;;;;;5.15;0.90;;;;;;;;;;5156997;27;20424;-73
2021/12/25 06:08:15;;;;;;;4.85;1.17;;;;;;;;;;5156986;27;20471;-73
2021/12/25 06:10:43;;;;;;;8.73;1.20;;;;;;;;;;5138034;27;20030;-73
2021/12/25 06:13:17;;;;;;;6.25;0.90;;;;;;;;;;5137841;27;20023;-73
2021/12/25 06:15:44;;;;;;;4.57;1.10;;;;;;;;;;5138434;27;20019;-73
2021/12/25 06:18:11;;;;;;;5.72;1.10;;;;;;;;;;5157022;27;20019;-73
2021/12/25 06:20:39;;;;;;;6.47;1.35;;;;;;;;;;5155720;27;20378;-73
2021/12/25 06:23:06;;;;;;;10.60;1.17;;;;;;;;;;5156908;27;20118;-72
2021/12/25 06:25:33;;;;;;;7.25;1.00;;;;;;;;;;5156764;27;20023;-73
2021/12/25 06:28:00;;;;;;;6.63;1.13;;;;;;;;;;5156827;27;20029;-73
2021/12/25 06:30:27;;;;;;;5.60;0.95;;;;;;;;;;5156577;27;20026;-73
2021/12/25 06:32:55;;;;;;;4.72;0.90;;;;;;;;;;5156688;27;20030;-72
2021/12/25 06:35:22;;;;;;;7.55;1.20;;;;;;;;;;5138034;27;20030;-73
2021/12/25 06:37:49;;;;;;;5.20;1.25;;;;;;;;;;5156608;27;20046;-72
2021/12/25 06:40:22;;;;;;;6.95;1.00;;;;;;;;;;5156318;27;20027;-73
2021/12/25 06:42:49;;;;;;;7.25;1.33;;;;;;;;;;5137952;27;20110;-72
2021/12/25 06:45:16;;;;;;;5.20;1.23;;;;;;;;;;5156294;27;20015;-72
2021/12/25 06:47:43;;;;;;;6.22;1.13;;;;;;;;;;5156375;27;20018;-72
2021/12/25 06:50:11;;;;;;;8.68;1.33;;;;;;;;;;5156319;27;20027;-72
2021/12/25 06:52:39;;;;;;;7.15;0.82;;;;;;;;;;5156011;27;20023;-72
2021/12/25 06:55:06;;;;;;;8.60;1.60;;;;;;;;;;5156324;27;20026;-72
2021/12/25 06:57:39;;;;;;;4.53;1.02;;;;;;;;;;5156108;27;20493;-72
2021/12/25 07:00:07;;;;;;;6.70;1.30;;;;;;;;;;5156104;27;20102;-72
2021/12/25 07:02:34;;;;;;;6.68;1.55;;;;;;;;;;5137279;27;20111;-72
2021/12/25 07:05:01;;;;;;;5.55;1.30;;;;;;;;;;5156031;27;20011;-73
2021/12/25 07:07:28;;;;;;;7.38;1.27;;;;;;;;;;5155826;27;20467;-73
2021/12/25 07:09:55;;;;;;;8.93;1.92;;;;;;;;;;5137272;27;20023;-72
2021/12/25 07:12:25;;;;;;;7.38;1.60;;;;;;;;;;5136939;27;20555;-72
2021/12/25 07:14:52;;;;;;;9.80;1.70;;;;;;;;;;5155936;27;20019;-73
2021/12/25 07:17:19;;;;;;;6.93;1.40;;;;;;;;;;5155604;27;20022;-73
2021/12/25 07:19:46;;;;;;;7.78;1.63;;;;;;;;;;5136683;27;20031;-73
2021/12/25 07:22:13;;;;;;;7.85;1.27;;;;;;;;;;5155660;27;20025;-73
2021/12/25 07:24:41;;;;;;;6.88;1.95;;;;;;;;;;5137116;27;20046;-73
2021/12/25 07:27:08;;;;;;;7.45;1.70;;;;;;;;;;5155517;27;20467;-73
2021/12/25 07:29:37;;;;;;;9.90;1.50;;;;;;;;;;5155647;27;20042;-73
2021/12/25 07:32:04;;;;;;;9.82;1.48;;;;;;;;;;5136055;27;20027;-73
2021/12/25 07:34:32;;;;;;;9.70;1.70;;;;;;;;;;5136931;27;20022;-73
2021/12/25 07:37:00;;;;;;;7.88;1.30;;;;;;;;;;5136814;27;20023;-72
2021/12/25 07:39:28;;;;;;;9.75;1.55;;;;;;;;;;5136309;27;20014;-73
2021/12/25 07:41:55;;;;;;;7.07;1.67;;;;;;;;;;5155271;27;20018;-73
2021/12/25 07:44:22;;;;;;;10.18;2.10;;;;;;;;;;5136479;27;20057;-73
2021/12/25 07:46:49;;;;;;;7.85;2.00;;;;;;;;;;5136564;27;20048;-73
2021/12/25 07:49:19;;;;;;;10.43;1.50;;;;;;;;;;5155123;27;20144;-73
2021/12/25 07:51:47;;;;;;;9.10;1.40;;;;;;;;;;5155132;27;20050;-73
2021/12/25 07:54:14;;;;;;;6.47;1.35;;;;;;;;;;5154863;27;20098;-73
2021/12/25 07:56:41;;;;;;;12.38;1.85;;;;;;;;;;5155123;27;20490;-73
2021/12/25 07:59:09;;;;;;;6.05;1.20;;;;;;;;;;5154832;27;20025;-73
2021/12/25 08:01:36;;;;;;;9.00;1.30;;;;;;;;;;5136265;27;20026;-73
2021/12/25 08:04:04;;;;;;;8.15;1.15;;;;;;;;;;5154734;27;20475;-73
2021/12/25 08:06:31;;;;;;;6.55;1.40;;;;;;;;;;5154898;27;20021;-73
2021/12/25 08:09:01;;;;;;;7.13;2.22;;;;;;;;;;5135732;27;20167;-73
2021/12/25 08:11:30;;;;;;;7.47;1.27;;;;;;;;;;5154822;27;20018;-73
2021/12/25 08:13:58;;;;;;;8.75;1.27;;;;;;;;;;5154725;27;20520;-73
2021/12/25 08:16:25;;;;;;;8.90;1.85;;;;;;;;;;5154805;27;20050;-73
2021/12/25 08:18:52;;;;;;;7.90;1.33;;;;;;;;;;5136039;27;20440;-73
2021/12/25 08:21:19;;;;;;;5.78;1.65;;;;;;;;;;5154555;27;20029;-74
2021/12/25 08:23:47;;;;;;;6.82;1.40;;;;;;;;;;5154334;27;20029;-73
2021/12/25 08:26:14;;;;;;;7.80;1.42;;;;;;;;;;5135523;27;20026;-73
2021/12/25 08:28:41;;;;;;;6.10;1.35;;;;;;;;;;5154379;27;20021;-73
2021/12/25 08:31:09;;;;;;;11.02;1.73;;;;;;;;;;5154447;27;20033;-73
2021/12/25 08:33:36;;;;;;;7.40;1.80;;;;;;;;;;5135280;27;20505;-73
2021/12/25 08:36:03;;;;;;;6.80;1.40;;;;;;;;;;5154449;27;20071;-73
2021/12/25 08:38:30;;;;;;;9.48;1.50;;;;;;;;;;5154255;27;20031;-73
2021/12/25 08:40:58;;;;;;;8.27;1.73;;;;;;;;;;5154389;27;20026;-73
2021/12/25 08:43:25;;;;;;;5.15;1.10;;;;;;;;;;5156326;27;20015;-73
2021/12/25 08:46:15;;;;;;;9.82;1.67;;;;;;;;;;5158728;27;20518;-73
2021/12/25 08:48:42;;;;;;;11.50;1.92;;;;;;;;;;5158577;27;20019;-73
2021/12/25 08:51:09;;;;;;;5.72;1.58;;;;;;;;;;5158536;27;20542;-73
2021/12/25 08:53:36;;;;;;;8.48;1.42;;;;;;;;;;5158548;27;20084;-73
2021/12/25 08:56:03;;;;;;;6.97;1.50;;;;;;;;;;5139875;27;20511;-73
2021/12/25 08:58:32;;;;;;;7.85;1.23;;;;;;;;;;5158386;27;20495;-74
2021/12/25 09:01:02;;;;;;;9.65;1.83;;;;;;;;;;5139665;27;20049;-73
2021/12/25 09:03:30;;;;;;;6.88;1.70;;;;;;;;;;5139514;27;20027;-73
2021/12/25 09:05:59;;;;;;;7.80;1.40;;;;;;;;;;5158240;27;20036;-73
2021/12/25 09:08:26;;;;;;;6.00;1.35;;;;;;;;;;5158222;27;20075;-73
2021/12/25 09:10:54;;;;;;;9.68;1.58;;;;;;;;;;5158007;27;20483;-73
2021/12/25 09:13:22;;;;;;;9.15;1.70;;;;;;;;;;5157992;27;20483;-73
2021/12/25 09:15:49;;;;;;;6.88;1.35;;;;;;;;;;5139076;27;20091;-73
2021/12/25 09:18:16;;;;;;;8.18;1.30;;;;;;;;;;5158203;27;20481;-73
2021/12/25 09:20:43;;;;;;;6.30;1.10;;;;;;;;;;5157816;27;20061;-73
2021/12/25 09:23:11;;;;;;;12.10;1.40;;;;;;;;;;5158035;27;20041;-73
2021/12/25 09:25:38;;;;;;;7.38;1.52;;;;;;;;;;5157853;27;20439;-73
2021/12/25 09:28:05;;;;;;;5.93;1.30;;;;;;;;;;5157821;27;20379;-73
2021/12/25 09:30:33;;;;;;;10.27;1.67;;;;;;;;;;5157738;27;20015;-73
2021/12/25 09:33:00;;;;;;;8.05;1.85;;;;;;;;;;5139124;27;20026;-73
2021/12/25 09:35:27;;;;;;;6.68;1.45;;;;;;;;;;5157823;27;20026;-73
2021/12/25 09:37:55;;;;;;;7.43;1.50;;;;;;;;;;5157842;27;20023;-73
2021/12/25 09:40:22;;;;;;;8.73;1.33;;;;;;;;;;5138630;27;20026;-74
2021/12/25 09:42:49;;;;;;;10.60;1.40;;;;;;;;;;5138648;27;20015;-73
2021/12/25 09:45:17;;;;;;;5.88;1.27;;;;;;;;;;5157538;27;20023;-73
2021/12/25 09:47:44;;;;;;;10.48;1.75;;;;;;;;;;5157363;27;20097;-73
2021/12/25 09:50:12;;;;;;;11.48;1.92;;;;;;;;;;5157254;27;20029;-72
2021/12/25 09:52:39;;;;;;;12.05;2.20;;;;;;;;;;5157046;27;20482;-73
2021/12/25 09:55:07;;;;;;;9.38;1.77;;;;;;;;;;5155699;27;20034;-73
2021/12/25 09:57:34;;;;;;;8.80;1.83;;;;;;;;;;5157147;27;20111;-73
2021/12/25 10:00:06;;;;;;;7.40;1.70;;;;;;;;;;5138261;27;20442;-73
2021/12/25 10:02:41;;;;;;;7.70;1.80;;;;;;;;;;5138394;27;20015;-73
2021/12/25 10:05:10;;;;;;;8.10;1.63;;;;;;;;;;5157251;27;20050;-73
2021/12/25 10:07:37;;;;;;;8.25;1.55;;;;;;;;;;5138209;27;20448;-73
2021/12/25 10:10:07;;;;;;;7.60;1.45;;;;;;;;;;5157147;27;20050;-73
2021/12/25 10:12:44;;;;;;;8.85;1.52;;;;;;;;;;5157154;27;20098;-72
2021/12/25 10:15:15;;;;;;;11.52;1.90;;;;;;;;;;5138454;27;20325;-73
2021/12/25 10:17:48;;;;;;;9.32;1.50;;;;;;;;;;5138171;27;20034;-73
2021/12/25 10:20:35;;;;;;;9.00;1.58;;;;;;;;;;5137950;27;20026;-72
2021/12/25 10:23:04;;;;;;;8.52;1.25;;;;;;;;;;5156921;27;20023;-73
2021/12/25 10:25:38;;;;;;;7.05;1.30;;;;;;;;;;5156760;27;20018;-73
2021/12/25 10:28:07;;;;;;;10.55;1.50;;;;;;;;;;5138366;27;20018;-73
2021/12/25 10:30:52;;;;;;;11.55;1.70;;;;;;;;;;5156796;27;20034;-73
2021/12/25 10:33:29;;;;;;;9.68;1.52;;;;;;;;;;5137870;27;20023;-73
2021/12/25 10:35:58;;;;;;;6.78;1.60;;;;;;;;;;5137928;27;20042;-73
2021/12/25 10:38:25;;;;;;;6.28;1.33;;;;;;;;;;5156609;27;20551;-73
2021/12/25 10:41:14;;;;;;;8.73;1.75;;;;;;;;;;5156512;27;20475;-72
2021/12/25 10:43:43;;;;;;;8.85;1.70;;;;;;;;;;5156519;27;20018;-72
2021/12/25 10:46:10;;;;;;;8.07;1.80;;;;;;;;;;5156537;27;20015;-72
2021/12/25 10:48:38;;;;;;;12.35;2.00;;;;;;;;;;5137623;27;20049;-72
2021/12/25 10:51:05;;;;;;;9.30;1.63;;;;;;;;;;5137835;27;20023;-72
2021/12/25 10:53:45;;;;;;;6.20;1.38;;;;;;;;;;5156086;27;20053;-73
2021/12/25 10:56:14;;;;;;;9.20;2.20;;;;;;;;;;5156466;27;20026;-72
2021/12/25 10:58:41;;;;;;;8.75;1.75;;;;;;;;;;5156169;27;20014;-73
2021/12/25 11:01:10;;;;;;;9.05;1.90;;;;;;;;;;5156133;27;20023;-73
2021/12/25 11:03:39;;;;;;;7.93;2.13;;;;;;;;;;5155874;27;20057;-73
2021/12/25 11:06:09;;;;;;;12.10;1.77;;;;;;;;;;5155629;27;20019;-73
2021/12/25 11:08:37;;;;;;;11.30;1.98;;;;;;;;;;5156042;27;20023;-73
2021/12/25 11:11:06;;;;;;;12.18;1.80;;;;;;;;;;5155965;27;20023;-73
2021/12/25 11:13:33;;;;;;;9.43;1.83;;;;;;;;;;5136963;27;20497;-73
2021/12/25 11:16:33;;;;;;;10.50;2.03;;;;;;;;;;5155801;27;20078;-73
2021/12/25 11:19:10;;;;;;;;;;;;;;;;;;5156286;27;20457;-73
2021/12/25 11:21:55;;;;;;;10.23;1.77;;;;;;;;;;5155724;27;20328;-72
2021/12/25 11:24:27;;;;;;;13.38;1.90;;;;;;;;;;5137191;27;20023;-72
2021/12/25 11:26:59;;;;;;;12.43;2.22;;;;;;;;;;5155652;27;20018;-72
2021/12/25 11:29:28;;;;;;;10.32;1.85;;;;;;;;;;5155554;27;20022;-73
2021/12/25 11:31:56;;;;;;;9.73;1.63;;;;;;;;;;5136687;27;20022;-72
2021/12/25 11:34:24;;;;;;;7.95;1.50;;;;;;;;;;5155612;27;20446;-72
2021/12/25 11:36:52;;;;;;;9.15;1.65;;;;;;;;;;5155457;27;20019;-73
2021/12/25 11:39:20;;;;;;;8.82;1.80;;;;;;;;;;5155359;27;20106;-73
2021/12/25 11:41:48;;;;;;;14.95;2.67;;;;;;;;;;5155401;27;20054;-72
2021/12/25 11:44:41;;;;;;;8.32;1.63;;;;;;;;;;5155397;27;20018;-73
2021/12/25 11:47:11;;;;;;;12.75;1.70;;;;;;;;;;5136525;27;20050;-72
2021/12/25 11:49:54;;;;;;;9.48;1.77;;;;;;;;;;5136313;27;20360;-73
2021/12/25 11:52:28;;;;;;;7.55;1.55;;;;;;;;;;5155211;27;20023;-73
2021/12/25 11:55:14;;;;;;;8.32;1.77;;;;;;;;;;5136442;27;20070;-72
2021/12/25 11:57:55;;;;;;;11.40;2.15;;;;;;;;;;5155266;27;20533;-73
2021/12/25 12:01:01;;;;;;;8.25;1.90;;;;;;;;;;5136275;27;20027;-72
2021/12/25 12:03:39;;;;;;;9.57;1.80;;;;;;;;;;5051110;28;20049;-72
2021/12/25 12:06:07;;;;;;;7.65;1.52;;;;;;;;;;5051211;28;20074;-72
2021/12/25 12:08:57;;;;;;;8.23;1.60;;;;;;;;;;5092719;27;20031;-72
2021/12/25 12:11:25;;;;;;;10.30;1.58;;;;;;;;;;5141984;27;20551;-73
2021/12/25 12:14:11;;;;;;;9.60;1.80;;;;;;;;;;5136076;27;20029;-73
2021/12/25 12:17:01;;;;;;;7.65;1.70;;;;;;;;;;5154613;27;20019;-73
2021/12/25 12:19:31;;;;;;;9.55;2.13;;;;;;;;;;5141683;27;20030;-73
2021/12/25 12:21:58;;;;;;;;;;;;;;;;;;5136413;27;20118;-73
2021/12/25 12:25:02;;;;;;;10.70;1.75;;;;;;;;;;5154987;27;19951;-72
2021/12/25 12:27:30;;;;;;;5.40;1.35;;;;;;;;;;5153944;27;20450;-73
2021/12/25 12:29:57;;;;;;;7.25;1.38;;;;;;;;;;5136199;27;20030;-73
2021/12/25 12:32:32;;;;;;;8.32;1.65;;;;;;;;;;5119554;27;20076;-73
2021/12/25 12:34:59;;;;;;;8.40;1.67;;;;;;;;;;5154448;27;20018;-73
2021/12/25 12:37:27;;;;;;;10.23;2.55;;;;;;;;;;5136097;27;20030;-73
2021/12/25 12:39:55;;;;;;;10.30;1.52;;;;;;;;;;5154490;27;20026;-72
2021/12/25 12:42:23;;;;;;;10.02;1.60;;;;;;;;;;5154619;27;20466;-72
2021/12/25 12:45:07;;;;;;;12.43;2.70;;;;;;;;;;5135650;27;20158;-72
2021/12/25 12:47:34;;;;;;;11.77;2.45;;;;;;;;;;5135699;27;20020;-72
2021/12/25 12:50:01;;;;;;;8.63;1.30;;;;;;;;;;5154487;27;20102;-73
2021/12/25 12:52:40;;;;;;;10.48;1.35;;;;;;;;;;5135665;27;20497;-72
2021/12/25 12:55:07;;;;;;;8.02;1.48;;;;;;;;;;5154409;27;20395;-73
2021/12/25 12:57:36;;;;;;;8.13;1.50;;;;;;;;;;5135500;27;20031;-72
2021/12/25 13:00:22;;;;;;;9.98;1.52;;;;;;;;;;5135395;27;20442;-72
2021/12/25 13:02:54;;;;;;;6.97;1.40;;;;;;;;;;5154368;27;20478;-72
2021/12/25 13:05:23;;;;;;;6.45;1.30;;;;;;;;;;5154345;27;20064;-72
2021/12/25 13:07:53;;;;;;;7.80;1.48;;;;;;;;;;5154341;27;20027;-73
2021/12/25 13:10:30;;;;;;;7.00;1.40;;;;;;;;;;5154282;27;20019;-72
2021/12/25 13:13:15;;;;;;;6.40;1.25;;;;;;;;;;5135459;27;20114;-72
2021/12/25 13:15:44;;;;;;;7.00;1.13;;;;;;;;;;5135571;27;20107;-72
2021/12/25 13:18:12;;;;;;;9.60;1.65;;;;;;;;;;5154161;27;20014;-72
2021/12/25 13:20:50;;;;;;;10.35;1.73;;;;;;;;;;5154073;27;20027;-72
2021/12/25 13:23:22;;;;;;;10.50;1.63;;;;;;;;;;5154169;27;20089;-73
2021/12/25 13:25:51;;;;;;;9.38;1.92;;;;;;;;;;5135207;27;20555;-72
2021/12/25 13:28:19;;;;;;;6.03;1.00;;;;;;;;;;5154175;27;20022;-73
2021/12/25 13:30:49;;;;;;;9.23;1.77;;;;;;;;;;5158016;27;20019;-72
2021/12/25 13:33:19;;;;;;;11.85;1.50;;;;;;;;;;5139743;27;20026;-72
2021/12/25 13:35:47;;;;;;;10.85;1.73;;;;;;;;;;5157882;27;20425;-72
2021/12/25 13:38:14;;;;;;;11.90;1.65;;;;;;;;;;5157804;27;20018;-72
2021/12/25 13:40:47;;;;;;;8.32;1.10;;;;;;;;;;5139105;27;20031;-72
2021/12/25 13:43:14;;;;;;;10.60;1.65;;;;;;;;;;5157779;27;20026;-72
2021/12/25 13:45:41;;;;;;;8.98;1.77;;;;;;;;;;5157748;27;20015;-73
2021/12/25 13:48:09;;;;;;;9.55;1.63;;;;;;;;;;5157665;27;20083;-73
2021/12/25 13:50:36;;;;;;;8.65;1.85;;;;;;;;;;5157417;27;20067;-73
2021/12/25 13:53:16;;;;;;;8.70;1.63;;;;;;;;;;5157186;27;20053;-73
2021/12/25 13:55:47;;;;;;;7.30;1.15;;;;;;;;;;5138697;27;20489;-73
2021/12/25 13:58:15;;;;;;;;;;;;;;;;;;5138947;27;20026;-73
2021/12/25 14:00:46;;;;;;;5.82;1.00;;;;;;;;;;5138804;27;19914;-73
2021/12/25 14:03:12;;;;;;;;;;;;;;;;;;5139250;27;20428;-73
2021/12/25 14:05:41;;;;;;;7.13;1.15;;;;;;;;;;5157315;27;20298;-73
2021/12/25 14:08:08;;;;;;;8.73;1.55;;;;;;;;;;5157254;27;20075;-73
2021/12/25 14:10:36;;;;;;;7.13;1.30;;;;;;;;;;5157303;27;20026;-73
2021/12/25 14:13:09;;;;;;;8.00;1.02;;;;;;;;;;5157323;27;20023;-73
2021/12/25 14:15:37;;;;;;;7.25;1.20;;;;;;;;;;5157258;27;20022;-73
2021/12/25 14:18:05;;;;;;;5.35;1.38;;;;;;;;;;5138559;27;20019;-73
2021/12/25 14:20:34;;;;;;;6.57;2.00;;;;;;;;;;5156975;27;20018;-73
2021/12/25 14:23:03;;;;;;;7.07;1.45;;;;;;;;;;5156889;27;20011;-73
2021/12/25 14:25:32;;;;;;;10.27;1.70;;;;;;;;;;5156969;27;20023;-73
2021/12/25 14:28:05;;;;;;;6.13;1.70;;;;;;;;;;5138305;27;20087;-73
2021/12/25 14:30:33;;;;;;;8.43;1.80;;;;;;;;;;5156797;27;20015;-73
2021/12/25 14:33:00;;;;;;;8.50;2.08;;;;;;;;;;5138222;27;20025;-72
2021/12/25 14:35:28;;;;;;;8.88;1.55;;;;;;;;;;5137924;27;20029;-73
2021/12/25 14:37:59;;;;;;;5.78;1.30;;;;;;;;;;5156594;27;20014;-73
2021/12/25 14:40:33;;;;;;;7.55;1.65;;;;;;;;;;5155839;27;20584;-73
2021/12/25 14:43:04;;;;;;;8.80;1.75;;;;;;;;;;5156646;27;20023;-73
2021/12/25 14:45:39;;;;;;;5.60;1.50;;;;;;;;;;5156621;27;20019;-73
2021/12/25 14:48:06;;;;;;;8.63;1.83;;;;;;;;;;5138076;27;20697;-73
2021/12/25 14:50:34;;;;;;;6.07;1.42;;;;;;;;;;5156580;27;20023;-73
2021/12/25 14:53:07;;;;;;;7.10;1.50;;;;;;;;;;5156128;27;20443;-73
2021/12/25 14:55:35;;;;;;;6.82;1.52;;;;;;;;;;5137319;27;20030;-73
2021/12/25 14:58:07;;;;;;;7.93;1.58;;;;;;;;;;5137429;27;20037;-73
2021/12/25 15:00:34;;;;;;;8.75;1.35;;;;;;;;;;5137169;27;20087;-73
2021/12/25 15:03:19;;;;;;;6.90;1.33;;;;;;;;;;5156139;27;20026;-73
2021/12/25 15:05:49;;;;;;;4.68;1.20;;;;;;;;;;5137576;27;20022;-72
2021/12/25 15:08:17;;;;;;;8.25;1.40;;;;;;;;;;5156096;27;20131;-73
2021/12/25 15:10:44;;;;;;;8.68;1.48;;;;;;;;;;5156120;27;20390;-72
2021/12/25 15:13:19;;;;;;;5.18;1.23;;;;;;;;;;5156027;27;20026;-72
2021/12/25 15:16:01;;;;;;;6.47;1.50;;;;;;;;;;5155862;27;20022;-72
2021/12/25 15:18:32;;;;;;;5.35;1.20;;;;;;;;;;5156013;27;20514;-72
2021/12/25 15:21:09;;;;;;;7.10;1.60;;;;;;;;;;5136928;27;20124;-72
2021/12/25 15:23:36;;;;;;;6.72;1.45;;;;;;;;;;5155693;27;20098;-73
2021/12/25 15:26:19;;;;;;;8.70;1.40;;;;;;;;;;5155694;27;20390;-73
2021/12/25 15:28:58;;;;;;;5.65;1.25;;;;;;;;;;5136864;27;20023;-73
2021/12/25 15:31:27;;;;;;;5.80;1.40;;;;;;;;;;5155691;27;20034;-73
2021/12/25 15:33:56;;;;;;;8.68;1.48;;;;;;;;;;5136778;27;20395;-73
2021/12/25 15:36:23;;;;;;;7.13;1.60;;;;;;;;;;5136643;27;20029;-73
2021/12/25 15:38:51;;;;;;;7.82;1.67;;;;;;;;;;5155468;27;20019;-73
2021/12/25 15:41:18;;;;;;;7.60;1.35;;;;;;;;;;5155443;27;20482;-73
2021/12/25 15:43:46;;;;;;;5.68;1.67;;;;;;;;;;5155466;27;20359;-73
2021/12/25 15:46:14;;;;;;;8.70;1.65;;;;;;;;;;5155294;27;20022;-73
2021/12/25 15:48:41;;;;;;;7.85;1.27;;;;;;;;;;5136556;27;20124;-73
2021/12/25 15:51:10;;;;;;;5.43;1.58;;;;;;;;;;5136314;27;20411;-73
2021/12/25 15:53:37;;;;;;;7.75;1.92;;;;;;;;;;5136344;27;20050;-73
2021/12/25 15:56:05;;;;;;;6.00;1.17;;;;;;;;;;5136415;27;20034;-73
2021/12/25 15:58:32;;;;;;;4.78;1.20;;;;;;;;;;5136167;27;20550;-72
2021/12/25 16:00:59;;;;;;;5.80;1.77;;;;;;;;;;5154998;27;20034;-72
2021/12/25 16:03:28;;;;;;;9.95;1.90;;;;;;;;;;5136402;27;20026;-72
2021/12/25 16:05:55;;;;;;;9.38;2.13;;;;;;;;;;5136508;27;20046;-72
2021/12/25 16:08:22;;;;;;;6.78;1.48;;;;;;;;;;5155009;27;20022;-72